Terminal Aerodrome Forecast
Issued by NWS

Home | Current Version | Previous Version | Graphics & Text | Print | Product List | Glossary On
Versions: 1 2 3 4 5 6 7 8 9 10 11 12 13 14 15 16 17
000
FTUS43 KMPX 061749
TAFRNH
TAF
KRNH 061749Z 0618/0718 24015G25KT P6SM -SN OVC025
     FM070000 26016G25KT P6SM OVC035
     FM071200 27015KT P6SM BKN040=

USA.gov is the U.S. government's official web portal to all federal, state and local government web resources and services.